createdAt,value
2022-09-07T00:01:05.360Z,2.70
2022-09-07T00:03:33.465Z,2.30
2022-09-07T00:06:06.686Z,3.50
2022-09-07T00:08:34.321Z,2.80
2022-09-07T00:11:04.117Z,2.70
2022-09-07T00:13:36.362Z,2.70
2022-09-07T00:16:06.345Z,2.50
2022-09-07T00:18:33.942Z,2.50
2022-09-07T00:21:05.435Z,2.60
2022-09-07T00:26:06.280Z,2.70
2022-09-07T00:28:34.627Z,2.30
2022-09-07T00:31:02.532Z,2.50
2022-09-07T00:33:30.771Z,2.50
2022-09-07T00:35:58.922Z,2.60
2022-09-07T00:38:26.637Z,2.50
2022-09-07T00:40:54.274Z,2.60
2022-09-07T00:43:43.442Z,2.30
2022-09-07T00:46:31.565Z,2.60
2022-09-07T00:49:13.277Z,2.30
2022-09-07T00:51:50.914Z,2.30
2022-09-07T00:54:23.518Z,3.50
2022-09-07T00:56:55.146Z,2.50
2022-09-07T00:59:26.913Z,2.50
2022-09-07T01:01:54.547Z,2.80
2022-09-07T01:04:23.214Z,2.30
2022-09-07T01:06:50.980Z,2.40
2022-09-07T01:09:22.531Z,2.70
2022-09-07T01:11:53.257Z,2.70
2022-09-07T01:14:28.714Z,2.30
2022-09-07T01:17:16.863Z,2.40
2022-09-07T01:20:12.170Z,2.50
2022-09-07T01:23:16.389Z,2.50
2022-09-07T01:26:11.396Z,2.50
2022-09-07T01:28:38.897Z,2.60
2022-09-07T01:31:20.997Z,2.50
2022-09-07T01:33:57.729Z,2.80
2022-09-07T01:36:52.329Z,2.60
2022-09-07T01:39:25.134Z,3.10
2022-09-07T01:42:04.035Z,2.40
2022-09-07T01:44:39.376Z,3.00
2022-09-07T01:47:06.733Z,2.60
2022-09-07T01:49:48.014Z,2.40
2022-09-07T01:52:40.051Z,2.40
2022-09-07T01:55:15.575Z,2.70
2022-09-07T01:57:54.306Z,2.80
2022-09-07T02:00:22.289Z,2.60
2022-09-07T02:03:03.551Z,2.80
2022-09-07T02:05:36.865Z,3.10
2022-09-07T02:08:08.831Z,3.30
2022-09-07T02:11:04.918Z,2.80
2022-09-07T02:13:42.761Z,2.80
2022-09-07T02:16:18.651Z,3.10
2022-09-07T02:18:49.863Z,3.10
2022-09-07T02:21:21.928Z,3.20
2022-09-07T02:24:12.229Z,2.80
2022-09-07T02:26:41.520Z,3.10
2022-09-07T02:29:08.981Z,2.80
2022-09-07T02:31:36.168Z,3.10
2022-09-07T02:34:03.796Z,2.90
2022-09-07T02:36:39.592Z,3.50
2022-09-07T02:39:07.620Z,3.30
2022-09-07T02:41:38.544Z,3.10
2022-09-07T02:44:13.777Z,2.80
2022-09-07T02:47:06.860Z,3.00
2022-09-07T02:50:16.097Z,3.20
2022-09-07T02:53:09.670Z,3.10
2022-09-07T02:56:06.209Z,2.80
2022-09-07T02:58:57.525Z,3.10
2022-09-07T03:01:40.066Z,3.30
2022-09-07T03:04:24.068Z,3.10
2022-09-07T03:07:02.908Z,3.10
2022-09-07T03:09:38.456Z,3.00
2022-09-07T03:12:07.597Z,3.10
2022-09-07T03:14:38.802Z,3.00
2022-09-07T03:17:05.951Z,2.80
2022-09-07T03:19:33.715Z,3.10
2022-09-07T03:22:01.029Z,3.20
2022-09-07T03:24:28.323Z,2.90
2022-09-07T03:26:55.756Z,3.10
2022-09-07T03:29:23.620Z,3.00
2022-09-07T03:31:51.016Z,3.00
2022-09-07T03:34:18.879Z,3.00
2022-09-07T03:36:46.023Z,2.60
2022-09-07T03:39:13.583Z,2.90
2022-09-07T03:41:41.246Z,3.40
2022-09-07T03:44:08.704Z,2.70
2022-09-07T03:46:36.165Z,3.10
2022-09-07T03:49:03.982Z,3.10
2022-09-07T03:51:31.286Z,2.80
2022-09-07T03:53:59.971Z,3.00
2022-09-07T03:56:27.898Z,2.80
2022-09-07T03:58:55.504Z,3.50
2022-09-07T04:01:25.573Z,3.40
2022-09-07T04:04:00.052Z,3.10
2022-09-07T04:06:29.754Z,3.10
2022-09-07T04:08:57.723Z,3.20
2022-09-07T04:11:24.874Z,3.40
2022-09-07T04:13:52.331Z,3.00
2022-09-07T04:16:23.295Z,2.70
2022-09-07T04:18:51.306Z,3.10
2022-09-07T04:21:18.806Z,3.00
2022-09-07T04:23:46.422Z,3.00
2022-09-07T04:26:19.623Z,2.80
2022-09-07T04:28:47.835Z,2.90
2022-09-07T04:31:16.747Z,3.60
2022-09-07T04:33:45.925Z,3.40
2022-09-07T04:36:14.611Z,3.40
2022-09-07T04:38:42.686Z,3.10
2022-09-07T04:41:13.625Z,3.60
2022-09-07T04:43:43.139Z,3.40
2022-09-07T04:46:24.567Z,3.50
2022-09-07T04:51:23.592Z,3.20
2022-09-07T04:53:53.033Z,3.90
2022-09-07T04:56:22.224Z,3.60
2022-09-07T04:58:50.610Z,3.50
2022-09-07T05:01:20.312Z,3.60
2022-09-07T05:03:48.396Z,3.90
2022-09-07T05:06:18.210Z,3.80
2022-09-07T05:08:48.081Z,4.60
2022-09-07T05:11:17.016Z,5.10
2022-09-07T05:13:44.370Z,4.20
2022-09-07T05:16:20.793Z,4.60
2022-09-07T05:18:53.606Z,4.40
2022-09-07T05:21:24.071Z,4.10
2022-09-07T05:23:54.088Z,4.30
2022-09-07T05:26:24.293Z,4.40
2022-09-07T05:28:52.417Z,5.00
2022-09-07T05:31:22.795Z,4.80
2022-09-07T05:36:41.675Z,4.50
2022-09-07T05:39:09.410Z,4.20
2022-09-07T05:41:36.794Z,5.10
2022-09-07T05:46:52.506Z,4.40
2022-09-07T05:49:20.168Z,3.90
2022-09-07T05:51:48.029Z,4.40
2022-09-07T05:54:15.590Z,4.70
2022-09-07T05:56:43.562Z,4.90
2022-09-07T05:59:11.290Z,4.40
2022-09-07T06:01:38.841Z,3.50
2022-09-07T06:04:06.346Z,3.60
2022-09-07T06:06:38.005Z,4.00
2022-09-07T06:09:06.589Z,3.00
2022-09-07T06:11:34.041Z,3.00
2022-09-07T06:14:01.299Z,3.50
2022-09-07T06:16:28.822Z,3.00
2022-09-07T06:18:56.217Z,3.20
2022-09-07T06:21:23.882Z,2.80
2022-09-07T06:23:51.953Z,2.60
2022-09-07T06:26:19.475Z,3.00
2022-09-07T06:28:50.786Z,2.70
2022-09-07T06:31:21.547Z,2.90
2022-09-07T06:33:50.186Z,3.10
2022-09-07T06:36:27.437Z,2.60
2022-09-07T06:38:58.856Z,2.90
2022-09-07T06:44:19.545Z,2.70
2022-09-07T06:49:29.893Z,2.50
2022-09-07T06:51:57.181Z,2.90
2022-09-07T06:57:12.375Z,2.80
2022-09-07T06:59:39.479Z,2.40
2022-09-07T07:02:07.597Z,2.80
2022-09-07T07:04:40.347Z,3.00
2022-09-07T07:07:13.584Z,2.70
2022-09-07T07:09:42.323Z,3.20
2022-09-07T07:12:10.594Z,2.90
2022-09-07T07:14:40.949Z,3.00
2022-09-07T07:17:09.669Z,2.80
2022-09-07T07:19:37.042Z,2.60
2022-09-07T07:22:29.612Z,2.70
2022-09-07T07:24:52.061Z,2.40
2022-09-07T07:27:21.200Z,2.50
2022-09-07T07:29:48.453Z,2.70
2022-09-07T07:32:16.173Z,2.70
2022-09-07T07:34:43.473Z,2.60
2022-09-07T07:37:10.524Z,2.60
2022-09-07T07:42:25.801Z,2.50
2022-09-07T07:48:04.667Z,2.60
2022-09-07T07:50:34.875Z,2.50
2022-09-07T07:55:51.929Z,3.00
2022-09-07T07:58:19.492Z,2.60
2022-09-07T08:00:56.188Z,2.40
2022-09-07T08:03:25.079Z,2.30
2022-09-07T08:05:53.252Z,2.30
2022-09-07T08:08:21.400Z,2.70
2022-09-07T08:10:49.540Z,2.10
2022-09-07T08:13:17.340Z,2.30
2022-09-07T08:15:45.834Z,2.30
2022-09-07T08:18:16.423Z,2.40
2022-09-07T08:20:43.400Z,3.60
2022-09-07T08:23:11.168Z,2.20
2022-09-07T08:25:38.906Z,2.50
2022-09-07T08:28:06.088Z,2.40
2022-09-07T08:30:33.030Z,2.50
2022-09-07T08:33:00.181Z,2.50
2022-09-07T08:35:27.231Z,2.20
2022-09-07T08:37:54.185Z,2.70
2022-09-07T08:40:21.433Z,2.30
2022-09-07T08:42:54.726Z,2.40
2022-09-07T08:45:32.630Z,2.60
2022-09-07T08:47:59.890Z,2.80
2022-09-07T08:50:38.666Z,2.60
2022-09-07T08:53:19.477Z,2.50
2022-09-07T08:55:51.237Z,2.40
2022-09-07T08:58:48.296Z,2.40
2022-09-07T09:01:32.246Z,2.70
2022-09-07T09:04:17.235Z,2.60
2022-09-07T09:07:10.532Z,2.30
2022-09-07T09:10:06.501Z,2.50
2022-09-07T09:12:54.852Z,2.30
2022-09-07T09:15:38.046Z,2.10
2022-09-07T09:18:27.486Z,2.10
2022-09-07T09:20:56.506Z,2.10
2022-09-07T09:23:26.441Z,2.30
2022-09-07T09:25:54.552Z,2.60
2022-09-07T09:28:22.560Z,2.30
2022-09-07T09:30:50.027Z,2.30
2022-09-07T09:33:18.957Z,2.50
2022-09-07T09:35:51.148Z,2.20
2022-09-07T09:38:39.076Z,2.30
2022-09-07T09:41:08.989Z,2.30
2022-09-07T09:43:51.497Z,2.10
2022-09-07T09:46:24.365Z,2.30
2022-09-07T09:49:19.608Z,2.40
2022-09-07T09:54:48.371Z,2.50
2022-09-07T09:57:17.197Z,2.50
2022-09-07T10:00:03.954Z,2.30
2022-09-07T10:05:27.815Z,2.70
2022-09-07T10:07:56.503Z,2.40
2022-09-07T10:10:25.930Z,2.10
2022-09-07T10:12:55.408Z,2.30
2022-09-07T10:15:40.604Z,2.70
2022-09-07T10:18:21.405Z,2.60
2022-09-07T10:20:48.704Z,2.90
2022-09-07T10:23:23.480Z,2.30
2022-09-07T10:25:51.151Z,2.20
2022-09-07T10:28:21.479Z,2.40
2022-09-07T10:31:15.304Z,2.90
2022-09-07T10:37:35.070Z,2.30
2022-09-07T10:40:35.336Z,2.30
2022-09-07T10:43:21.059Z,2.20
2022-09-07T10:53:36.590Z,2.30
2022-09-07T10:55:59.616Z,2.30
2022-09-07T11:01:26.545Z,2.50
2022-09-07T11:04:23.945Z,2.30
2022-09-07T11:06:57.558Z,2.50
2022-09-07T11:09:49.276Z,2.30
2022-09-07T11:12:28.160Z,2.30
2022-09-07T11:15:13.686Z,2.40
2022-09-07T11:17:52.815Z,2.50
2022-09-07T11:20:26.421Z,2.60
2022-09-07T11:23:12.823Z,2.70
2022-09-07T11:25:58.613Z,2.70
2022-09-07T11:31:48.624Z,2.70
2022-09-07T11:34:25.432Z,2.50
2022-09-07T11:37:06.377Z,2.80
2022-09-07T11:48:09.264Z,2.70
2022-09-07T11:50:42.518Z,2.40
2022-09-07T11:53:18.800Z,2.70
2022-09-07T11:56:09.518Z,2.60
2022-09-07T11:59:04.186Z,3.10
2022-09-07T12:01:56.645Z,2.90
2022-09-07T12:04:56.139Z,2.80
2022-09-07T12:08:07.631Z,2.70
2022-09-07T12:10:34.493Z,2.60
2022-09-07T12:13:25.998Z,2.80
2022-09-07T12:16:00.057Z,3.00
2022-09-07T12:18:48.625Z,2.60
2022-09-07T12:21:38.961Z,2.60
2022-09-07T12:24:32.030Z,2.80
2022-09-07T12:27:00.298Z,2.80
2022-09-07T12:29:29.702Z,2.70
2022-09-07T12:32:07.625Z,2.70
2022-09-07T12:34:52.579Z,2.60
2022-09-07T12:37:38.311Z,2.80
2022-09-07T12:40:29.949Z,2.80
2022-09-07T12:43:12.195Z,3.00
2022-09-07T12:45:42.027Z,2.80
2022-09-07T12:48:15.458Z,2.70
2022-09-07T12:51:03.756Z,2.70
2022-09-07T12:53:48.510Z,2.70
2022-09-07T12:56:27.653Z,2.90
2022-09-07T12:58:57.465Z,2.80
2022-09-07T13:01:43.903Z,2.90
2022-09-07T13:04:33.755Z,2.60
2022-09-07T13:07:29.681Z,2.70
2022-09-07T13:09:59.293Z,2.80
2022-09-07T13:12:57.337Z,2.70
2022-09-07T13:16:03.760Z,3.00
2022-09-07T13:18:30.992Z,2.90
2022-09-07T13:21:07.086Z,2.80
2022-09-07T13:23:42.601Z,3.00
2022-09-07T13:26:31.975Z,3.10
2022-09-07T13:29:02.675Z,3.00
2022-09-07T13:31:58.328Z,2.70
2022-09-07T13:34:34.501Z,2.90
2022-09-07T13:37:04.465Z,3.30
2022-09-07T13:39:44.590Z,2.60
2022-09-07T13:42:17.349Z,2.90
2022-09-07T13:45:02.009Z,2.70
2022-09-07T13:47:47.798Z,3.00
2022-09-07T13:50:20.359Z,2.80
2022-09-07T13:53:29.993Z,3.10
2022-09-07T13:56:28.517Z,3.00
2022-09-07T13:58:56.182Z,2.90
2022-09-07T14:01:28.198Z,2.90
2022-09-07T14:04:06.248Z,3.30
2022-09-07T14:06:37.911Z,2.80
2022-09-07T14:09:13.660Z,2.90
2022-09-07T14:11:48.434Z,3.00
2022-09-07T14:14:19.095Z,2.90
2022-09-07T14:17:02.223Z,2.70
2022-09-07T14:19:40.361Z,2.70
2022-09-07T14:22:13.352Z,3.00
2022-09-07T14:24:52.480Z,3.00
2022-09-07T14:27:31.509Z,3.10
2022-09-07T14:30:24.058Z,2.90
2022-09-07T14:32:56.638Z,3.30
2022-09-07T14:35:32.085Z,3.00
2022-09-07T14:39:03.895Z,2.90
2022-09-07T14:41:11.546Z,2.90
2022-09-07T14:43:54.465Z,2.70
2022-09-07T14:46:23.811Z,2.70
2022-09-07T14:48:55.321Z,3.10
2022-09-07T14:51:35.641Z,2.80
2022-09-07T14:54:06.500Z,2.80
2022-09-07T14:56:41.478Z,2.90
2022-09-07T14:59:47.418Z,2.90
2022-09-07T15:02:31.551Z,6.50
2022-09-07T15:05:23.159Z,6.60
2022-09-07T15:08:01.233Z,4.10
2022-09-07T15:10:32.005Z,3.70
2022-09-07T15:13:00.505Z,3.80
2022-09-07T15:15:37.426Z,4.90
2022-09-07T15:18:26.054Z,4.70
2022-09-07T15:20:53.205Z,5.50
2022-09-07T15:23:20.564Z,6.00
2022-09-07T15:25:53.630Z,7.20
2022-09-07T15:34:11.846Z,3.70
2022-09-07T15:36:42.086Z,3.90
2022-09-07T15:39:21.886Z,3.70
2022-09-07T15:41:49.240Z,3.40
2022-09-07T15:44:20.423Z,3.60
2022-09-07T15:49:39.232Z,3.10
2022-09-07T15:52:08.226Z,3.30
2022-09-07T15:54:39.220Z,3.30
2022-09-07T15:59:54.011Z,3.20
2022-09-07T16:05:09.011Z,3.40
2022-09-07T16:10:23.984Z,3.60
2022-09-07T16:15:46.209Z,4.10
2022-09-07T16:18:16.566Z,3.70
2022-09-07T16:20:44.627Z,3.80
2022-09-07T16:23:13.714Z,4.20
2022-09-07T16:25:42.649Z,3.80
2022-09-07T16:28:10.398Z,3.70
2022-09-07T16:30:40.826Z,4.00
2022-09-07T16:33:08.000Z,4.10
2022-09-07T16:35:35.102Z,4.10
2022-09-07T16:40:50.635Z,4.20
2022-09-07T16:43:18.088Z,3.80
2022-09-07T16:48:34.721Z,4.40
2022-09-07T16:51:05.087Z,5.20
2022-09-07T16:53:34.073Z,5.60
2022-09-07T16:56:09.791Z,5.10
2022-09-07T16:58:42.797Z,5.20
2022-09-07T17:01:13.107Z,5.70
2022-09-07T17:03:40.936Z,5.10
2022-09-07T17:06:10.681Z,5.60
2022-09-07T17:08:38.708Z,6.00
2022-09-07T17:11:08.757Z,5.80
2022-09-07T17:13:37.766Z,6.80
2022-09-07T17:16:08.628Z,6.80
2022-09-07T17:21:24.010Z,6.60
2022-09-07T17:23:55.609Z,5.40
2022-09-07T17:26:26.894Z,5.90
2022-09-07T17:34:15.700Z,6.00
2022-09-07T17:36:42.817Z,6.10
2022-09-07T17:39:18.906Z,5.50
2022-09-07T17:41:48.217Z,6.00
2022-09-07T17:44:15.468Z,6.60
2022-09-07T17:46:42.941Z,6.10
2022-09-07T17:49:13.871Z,6.00
2022-09-07T17:51:40.929Z,5.90
2022-09-07T17:54:13.219Z,6.30
2022-09-07T17:56:41.358Z,6.60
2022-09-07T18:01:56.759Z,6.10
2022-09-07T18:04:24.290Z,6.60
2022-09-07T18:06:51.265Z,6.10
2022-09-07T18:09:19.205Z,6.00
2022-09-07T18:11:48.002Z,6.60
2022-09-07T18:14:15.696Z,6.80
2022-09-07T18:16:44.561Z,6.30
2022-09-07T18:19:12.041Z,6.00
2022-09-07T18:21:41.442Z,6.10
2022-09-07T18:24:21.600Z,6.90
2022-09-07T18:26:52.065Z,6.80
2022-09-07T18:29:33.497Z,6.40
2022-09-07T18:33:01.392Z,5.90
2022-09-07T18:36:29.104Z,6.20
2022-09-07T18:47:58.223Z,7.00
2022-09-07T18:51:24.962Z,6.40
2022-09-07T18:53:56.610Z,6.70
2022-09-07T18:56:23.576Z,6.50
2022-09-07T18:58:56.462Z,6.50
2022-09-07T19:01:24.830Z,6.60
2022-09-07T19:03:53.735Z,6.80
2022-09-07T19:06:48.534Z,5.90
2022-09-07T19:09:15.685Z,5.70
2022-09-07T19:11:43.451Z,5.80
2022-09-07T19:14:10.563Z,5.90
2022-09-07T19:17:37.350Z,5.70
2022-09-07T19:20:04.914Z,5.50
2022-09-07T19:22:31.960Z,5.90
2022-09-07T19:24:58.807Z,5.30
2022-09-07T19:27:26.847Z,5.40
2022-09-07T19:29:53.721Z,5.10
2022-09-07T19:32:21.488Z,6.10
2022-09-07T19:35:51.824Z,5.20
2022-09-07T19:38:36.687Z,4.90
2022-09-07T19:41:03.736Z,5.20
2022-09-07T19:43:33.575Z,5.10
2022-09-07T19:46:00.635Z,5.40
2022-09-07T19:49:11.577Z,5.00
2022-09-07T19:52:18.488Z,5.50
2022-09-07T19:55:50.944Z,5.10
2022-09-07T19:58:57.666Z,5.10
2022-09-07T20:02:04.393Z,5.00
2022-09-07T20:05:12.902Z,4.90
2022-09-07T20:07:39.871Z,10.50
2022-09-07T20:11:11.741Z,5.10
2022-09-07T20:17:05.537Z,4.40
2022-09-07T20:20:12.381Z,3.70
2022-09-07T20:23:43.880Z,7.60
2022-09-07T20:26:50.765Z,4.40
2022-09-07T20:29:57.749Z,4.00
2022-09-07T20:33:04.737Z,6.40
2022-09-07T20:36:35.786Z,5.10
2022-09-07T20:39:42.678Z,4.30
2022-09-07T20:42:45.558Z,6.70
2022-09-07T20:45:52.169Z,4.80
2022-09-07T20:48:58.998Z,4.40
2022-09-07T20:52:05.695Z,4.50
2022-09-07T20:55:12.680Z,9.20
2022-09-07T20:58:45.163Z,4.00
2022-09-07T21:01:52.194Z,4.00
2022-09-07T21:04:59.134Z,4.40
2022-09-07T21:08:06.123Z,4.40
2022-09-07T21:11:13.006Z,7.50
2022-09-07T21:14:00.130Z,5.20
2022-09-07T21:17:08.132Z,4.80
2022-09-07T21:20:38.876Z,3.90
